sensor_id;sensor_type;location;lat;lon;timestamp;pressure;altitude;pressure_sealevel;temperature;humidity
3250;BME280;1637;42.020;23.992;2022-08-04T00:01:31;93106.97;;;18.11;100.00
3250;BME280;1637;42.020;23.992;2022-08-04T00:04:02;93105.06;;;17.99;100.00
3250;BME280;1637;42.020;23.992;2022-08-04T00:06:39;93106.59;;;18.00;100.00
3250;BME280;1637;42.020;23.992;2022-08-04T00:09:16;93105.75;;;17.90;100.00
3250;BME280;1637;42.020;23.992;2022-08-04T00:11:45;93102.03;;;17.97;100.00
3250;BME280;1637;42.020;23.992;2022-08-04T00:14:15;93113.75;;;17.94;100.00
3250;BME280;1637;42.020;23.992;2022-08-04T00:16:42;93110.09;;;17.88;100.00
3250;BME280;1637;42.020;23.992;2022-08-04T00:19:17;93103.84;;;17.78;100.00
3250;BME280;1637;42.020;23.992;2022-08-04T00:21:52;93101.25;;;17.74;100.00
3250;BME280;1637;42.020;23.992;2022-08-04T00:24:21;93096.72;;;17.59;100.00
3250;BME280;1637;42.020;23.992;2022-08-04T00:26:52;93095.00;;;17.52;100.00
3250;BME280;1637;42.020;23.992;2022-08-04T00:29:20;93094.88;;;17.56;100.00
3250;BME280;1637;42.020;23.992;2022-08-04T00:31:47;93092.91;;;17.69;100.00
3250;BME280;1637;42.020;23.992;2022-08-04T00:34:14;93105.59;;;17.72;100.00
3250;BME280;1637;42.020;23.992;2022-08-04T00:36:43;93088.91;;;17.61;100.00
3250;BME280;1637;42.020;23.992;2022-08-04T00:39:12;93094.56;;;17.66;100.00
3250;BME280;1637;42.020;23.992;2022-08-04T00:41:52;93096.50;;;17.53;100.00
3250;BME280;1637;42.020;23.992;2022-08-04T00:44:29;93099.31;;;17.62;100.00
3250;BME280;1637;42.020;23.992;2022-08-04T00:47:21;93094.81;;;17.34;100.00
3250;BME280;1637;42.020;23.992;2022-08-04T00:50:15;93087.56;;;17.31;100.00
3250;BME280;1637;42.020;23.992;2022-08-04T00:52:55;93100.88;;;17.25;100.00
3250;BME280;1637;42.020;23.992;2022-08-04T00:55:39;93093.53;;;17.13;100.00
3250;BME280;1637;42.020;23.992;2022-08-04T00:58:28;93090.28;;;17.05;100.00
3250;BME280;1637;42.020;23.992;2022-08-04T01:00:59;93088.78;;;17.04;100.00
3250;BME280;1637;42.020;23.992;2022-08-04T01:03:41;93092.16;;;16.96;100.00
3250;BME280;1637;42.020;23.992;2022-08-04T01:06:21;93088.69;;;16.95;100.00
3250;BME280;1637;42.020;23.992;2022-08-04T01:09:02;93094.41;;;16.84;100.00
3250;BME280;1637;42.020;23.992;2022-08-04T01:11:39;93073.75;;;16.78;100.00
3250;BME280;1637;42.020;23.992;2022-08-04T01:14:24;93102.66;;;16.81;100.00
3250;BME280;1637;42.020;23.992;2022-08-04T01:17:01;93091.81;;;16.68;100.00
3250;BME280;1637;42.020;23.992;2022-08-04T01:19:52;93091.19;;;17.02;100.00
3250;BME280;1637;42.020;23.992;2022-08-04T01:26:10;93104.28;;;16.91;100.00
3250;BME280;1637;42.020;23.992;2022-08-04T01:32:01;93092.66;;;16.65;100.00
3250;BME280;1637;42.020;23.992;2022-08-04T01:34:30;93102.59;;;16.56;100.00
3250;BME280;1637;42.020;23.992;2022-08-04T01:37:07;93088.78;;;16.25;100.00
3250;BME280;1637;42.020;23.992;2022-08-04T01:39:43;93105.53;;;16.61;100.00
3250;BME280;1637;42.020;23.992;2022-08-04T01:42:17;93101.66;;;16.75;100.00
3250;BME280;1637;42.020;23.992;2022-08-04T01:44:46;93096.53;;;16.52;100.00
3250;BME280;1637;42.020;23.992;2022-08-04T01:47:16;93094.53;;;16.27;100.00
3250;BME280;1637;42.020;23.992;2022-08-04T01:49:48;93094.75;;;16.32;100.00
3250;BME280;1637;42.020;23.992;2022-08-04T01:52:17;93097.19;;;16.56;100.00
3250;BME280;1637;42.020;23.992;2022-08-04T01:54:45;93087.69;;;16.64;100.00
3250;BME280;1637;42.020;23.992;2022-08-04T01:57:14;93091.13;;;16.52;100.00
3250;BME280;1637;42.020;23.992;2022-08-04T01:59:44;93090.09;;;16.20;100.00
3250;BME280;1637;42.020;23.992;2022-08-04T02:02:11;93087.94;;;16.28;100.00
3250;BME280;1637;42.020;23.992;2022-08-04T02:04:40;93077.69;;;16.35;100.00
3250;BME280;1637;42.020;23.992;2022-08-04T02:07:18;93085.03;;;16.35;100.00
3250;BME280;1637;42.020;23.992;2022-08-04T02:09:56;93089.59;;;16.50;100.00
3250;BME280;1637;42.020;23.992;2022-08-04T02:12:35;93088.31;;;16.55;100.00
3250;BME280;1637;42.020;23.992;2022-08-04T02:15:10;93086.47;;;16.52;100.00
3250;BME280;1637;42.020;23.992;2022-08-04T02:17:45;93081.53;;;16.76;100.00
3250;BME280;1637;42.020;23.992;2022-08-04T02:20:23;93090.22;;;16.42;100.00
3250;BME280;1637;42.020;23.992;2022-08-04T02:22:55;93062.09;;;16.27;100.00
3250;BME280;1637;42.020;23.992;2022-08-04T02:25:25;93085.88;;;16.19;100.00
3250;BME280;1637;42.020;23.992;2022-08-04T02:28:05;93083.19;;;16.19;100.00
3250;BME280;1637;42.020;23.992;2022-08-04T02:30:40;93086.03;;;15.99;100.00
3250;BME280;1637;42.020;23.992;2022-08-04T02:33:12;93093.06;;;16.38;100.00
3250;BME280;1637;42.020;23.992;2022-08-04T02:35:45;93086.50;;;16.23;100.00
3250;BME280;1637;42.020;23.992;2022-08-04T02:38:23;93094.56;;;16.39;100.00
3250;BME280;1637;42.020;23.992;2022-08-04T02:40:50;93091.91;;;16.65;100.00
3250;BME280;1637;42.020;23.992;2022-08-04T02:43:19;93092.78;;;16.62;100.00
3250;BME280;1637;42.020;23.992;2022-08-04T02:45:48;93099.34;;;16.06;100.00
3250;BME280;1637;42.020;23.992;2022-08-04T02:48:17;93089.63;;;16.09;100.00
3250;BME280;1637;42.020;23.992;2022-08-04T02:50:49;93086.47;;;15.98;100.00
3250;BME280;1637;42.020;23.992;2022-08-04T02:53:21;93090.72;;;16.24;100.00
3250;BME280;1637;42.020;23.992;2022-08-04T02:55:48;93083.94;;;16.20;100.00
3250;BME280;1637;42.020;23.992;2022-08-04T02:58:19;93088.03;;;16.24;100.00
3250;BME280;1637;42.020;23.992;2022-08-04T03:00:48;93083.47;;;16.21;100.00
3250;BME280;1637;42.020;23.992;2022-08-04T03:03:22;93063.44;;;15.48;100.00
3250;BME280;1637;42.020;23.992;2022-08-04T03:06:16;93089.31;;;15.78;100.00
3250;BME280;1637;42.020;23.992;2022-08-04T03:12:15;93095.91;;;15.77;100.00
3250;BME280;1637;42.020;23.992;2022-08-04T03:15:19;93101.91;;;15.97;100.00
3250;BME280;1637;42.020;23.992;2022-08-04T03:18:21;93105.97;;;15.89;
3250;BME280;1637;42.020;23.992;2022-08-04T03:21:27;93094.31;;;15.92;100.00
3250;BME280;1637;42.020;23.992;2022-08-04T03:24:29;93105.97;;;16.18;100.00
3250;BME280;1637;42.020;23.992;2022-08-04T03:27:11;93101.44;;;16.28;100.00
3250;BME280;1637;42.020;23.992;2022-08-04T03:30:04;93107.38;;;16.23;100.00
3250;BME280;1637;42.020;23.992;2022-08-04T03:33:12;93108.03;;;16.27;100.00
3250;BME280;1637;42.020;23.992;2022-08-04T03:35:58;93098.75;;;16.28;100.00
3250;BME280;1637;42.020;23.992;2022-08-04T03:47:50;93100.84;;;16.36;100.00
3250;BME280;1637;42.020;23.992;2022-08-04T03:50:34;93100.31;;;16.41;100.00
3250;BME280;1637;42.020;23.992;2022-08-04T03:53:32;93104.31;;;16.49;100.00
3250;BME280;1637;42.020;23.992;2022-08-04T03:56:32;93119.16;;;16.58;100.00
3250;BME280;1637;42.020;23.992;2022-08-04T03:59:23;93112.94;;;16.44;100.00
3250;BME280;1637;42.020;23.992;2022-08-04T04:05:02;93116.56;;;16.12;100.00
3250;BME280;1637;42.020;23.992;2022-08-04T04:07:43;93118.34;;;16.32;100.00
3250;BME280;1637;42.020;23.992;2022-08-04T04:10:28;93120.00;;;16.55;100.00
3250;BME280;1637;42.020;23.992;2022-08-04T04:13:25;93116.94;;;17.20;100.00
3250;BME280;1637;42.020;23.992;2022-08-04T04:16:06;93131.16;;;17.83;97.09
3250;BME280;1637;42.020;23.992;2022-08-04T04:19:20;93128.72;;;18.42;91.63
3250;BME280;1637;42.020;23.992;2022-08-04T04:21:57;93128.16;;;18.91;87.00
3250;BME280;1637;42.020;23.992;2022-08-04T04:27:42;93125.44;;;19.31;84.26
3250;BME280;1637;42.020;23.992;2022-08-04T04:30:18;93130.28;;;19.36;83.05
3250;BME280;1637;42.020;23.992;2022-08-04T04:35:52;93130.06;;;18.37;88.56
3250;BME280;1637;42.020;23.992;2022-08-04T04:38:40;93122.69;;;17.81;93.30
3250;BME280;1637;42.020;23.992;2022-08-04T04:41:46;93111.63;;;17.16;97.17
3250;BME280;1637;42.020;23.992;2022-08-04T04:47:26;93125.28;;;17.00;100.00
3250;BME280;1637;42.020;23.992;2022-08-04T04:50:04;93122.00;;;17.30;98.85
3250;BME280;1637;42.020;23.992;2022-08-04T04:52:39;93121.09;;;17.71;95.54
3250;BME280;1637;42.020;23.992;2022-08-04T04:55:12;93124.22;;;17.82;94.15
3250;BME280;1637;42.020;23.992;2022-08-04T04:57:44;93124.63;;;18.37;91.85
3250;BME280;1637;42.020;23.992;2022-08-04T05:00:13;93127.22;;;19.25;85.65
3250;BME280;1637;42.020;23.992;2022-08-04T05:05:59;93134.66;;;20.74;76.76
3250;BME280;1637;42.020;23.992;2022-08-04T05:09:01;93133.06;;;21.42;74.99
3250;BME280;1637;42.020;23.992;2022-08-04T05:11:45;93138.03;;;21.53;74.12
3250;BME280;1637;42.020;23.992;2022-08-04T05:14:23;93133.13;;;21.90;73.15
3250;BME280;1637;42.020;23.992;2022-08-04T05:17:00;93136.91;;;22.70;68.82
3250;BME280;1637;42.020;23.992;2022-08-04T05:19:37;93137.78;;;22.22;71.78
3250;BME280;1637;42.020;23.992;2022-08-04T05:22:11;93138.38;;;22.03;71.79
3250;BME280;1637;42.020;23.992;2022-08-04T05:24:44;93147.19;;;22.75;68.86
3250;BME280;1637;42.020;23.992;2022-08-04T05:27:16;93152.50;;;22.40;69.49
3250;BME280;1637;42.020;23.992;2022-08-04T05:29:50;93192.19;;;22.02;71.14
3250;BME280;1637;42.020;23.992;2022-08-04T05:32:23;93144.84;;;22.29;70.47
3250;BME280;1637;42.020;23.992;2022-08-04T05:34:54;93148.69;;;22.61;70.69
3250;BME280;1637;42.020;23.992;2022-08-04T05:37:25;93153.72;;;22.39;71.44
3250;BME280;1637;42.020;23.992;2022-08-04T05:39:55;93148.34;;;21.82;73.73
3250;BME280;1637;42.020;23.992;2022-08-04T05:42:23;93144.78;;;20.09;81.66
3250;BME280;1637;42.020;23.992;2022-08-04T05:44:51;93148.50;;;19.66;85.70
3250;BME280;1637;42.020;23.992;2022-08-04T05:47:19;93149.44;;;19.72;87.13
3250;BME280;1637;42.020;23.992;2022-08-04T05:49:46;93145.81;;;20.94;79.57
3250;BME280;1637;42.020;23.992;2022-08-04T05:52:14;93153.88;;;21.31;77.65
3250;BME280;1637;42.020;23.992;2022-08-04T05:54:42;93150.78;;;21.80;76.39
3250;BME280;1637;42.020;23.992;2022-08-04T05:57:11;93153.25;;;21.92;75.76
3250;BME280;1637;42.020;23.992;2022-08-04T05:59:40;93159.56;;;22.46;74.12
3250;BME280;1637;42.020;23.992;2022-08-04T06:02:13;93136.91;;;21.92;75.35
3250;BME280;1637;42.020;23.992;2022-08-04T06:04:42;93148.66;;;21.75;77.67
3250;BME280;1637;42.020;23.992;2022-08-04T06:07:12;93169.09;;;23.04;70.77
3250;BME280;1637;42.020;23.992;2022-08-04T06:09:39;93153.81;;;22.98;71.18
3250;BME280;1637;42.020;23.992;2022-08-04T06:12:13;93160.03;;;23.13;71.31
3250;BME280;1637;42.020;23.992;2022-08-04T06:14:42;93156.41;;;22.24;73.77
3250;BME280;1637;42.020;23.992;2022-08-04T06:17:13;93146.00;;;20.72;81.66
3250;BME280;1637;42.020;23.992;2022-08-04T06:19:42;93143.59;;;20.38;85.33
3250;BME280;1637;42.020;23.992;2022-08-04T06:22:11;93138.59;;;19.90;90.11
3250;BME280;1637;42.020;23.992;2022-08-04T06:24:39;93132.69;;;19.74;91.68
3250;BME280;1637;42.020;23.992;2022-08-04T06:27:09;93141.50;;;19.47;93.18
3250;BME280;1637;42.020;23.992;2022-08-04T06:29:37;93134.19;;;19.35;94.89
3250;BME280;1637;42.020;23.992;2022-08-04T06:32:06;93131.91;;;19.64;94.05
3250;BME280;1637;42.020;23.992;2022-08-04T06:34:54;93139.41;;;21.48;83.60
3250;BME280;1637;42.020;23.992;2022-08-04T06:37:22;93147.13;;;23.13;72.94
3250;BME280;1637;42.020;23.992;2022-08-04T06:39:50;93151.94;;;25.10;64.73
3250;BME280;1637;42.020;23.992;2022-08-04T06:42:20;93145.88;;;25.63;62.59
3250;BME280;1637;42.020;23.992;2022-08-04T06:44:49;93151.31;;;25.26;62.60
3250;BME280;1637;42.020;23.992;2022-08-04T06:47:18;93140.88;;;25.30;62.72
3250;BME280;1637;42.020;23.992;2022-08-04T06:49:46;93146.25;;;25.82;61.18
3250;BME280;1637;42.020;23.992;2022-08-04T06:52:15;93145.13;;;25.63;63.08
3250;BME280;1637;42.020;23.992;2022-08-04T06:54:43;93149.69;;;26.20;60.84
3250;BME280;1637;42.020;23.992;2022-08-04T06:57:13;93147.66;;;26.09;61.88
3250;BME280;1637;42.020;23.992;2022-08-04T06:59:43;93145.56;;;26.35;60.62
3250;BME280;1637;42.020;23.992;2022-08-04T07:02:14;93134.94;;;26.12;61.20
3250;BME280;1637;42.020;23.992;2022-08-04T07:04:42;93144.75;;;27.00;58.78
3250;BME280;1637;42.020;23.992;2022-08-04T07:07:10;93140.88;;;26.53;62.08
3250;BME280;1637;42.020;23.992;2022-08-04T07:09:38;93114.16;;;26.53;61.52
3250;BME280;1637;42.020;23.992;2022-08-04T07:12:06;93135.09;;;26.45;61.30
3250;BME280;1637;42.020;23.992;2022-08-04T07:14:34;93131.91;;;26.58;61.64
3250;BME280;1637;42.020;23.992;2022-08-04T07:17:05;93130.69;;;26.87;59.88
3250;BME280;1637;42.020;23.992;2022-08-04T07:19:33;93134.78;;;27.75;57.40
3250;BME280;1637;42.020;23.992;2022-08-04T07:22:01;93134.22;;;27.99;55.17
3250;BME280;1637;42.020;23.992;2022-08-04T07:24:29;93126.28;;;27.40;56.63
3250;BME280;1637;42.020;23.992;2022-08-04T07:26:56;93124.22;;;27.90;56.36
3250;BME280;1637;42.020;23.992;2022-08-04T07:29:23;93131.03;;;27.67;53.93
3250;BME280;1637;42.020;23.992;2022-08-04T07:31:51;93128.00;;;27.82;55.85
3250;BME280;1637;42.020;23.992;2022-08-04T07:34:20;93125.78;;;27.58;54.61
3250;BME280;1637;42.020;23.992;2022-08-04T07:36:49;93133.03;;;28.58;53.21
3250;BME280;1637;42.020;23.992;2022-08-04T07:39:17;93126.31;;;28.48;52.60
3250;BME280;1637;42.020;23.992;2022-08-04T07:41:45;93120.97;;;27.86;53.99
3250;BME280;1637;42.020;23.992;2022-08-04T07:44:14;93124.22;;;27.90;54.85
3250;BME280;1637;42.020;23.992;2022-08-04T07:46:41;93122.00;;;27.83;55.04
3250;BME280;1637;42.020;23.992;2022-08-04T07:49:09;93120.00;;;27.50;55.95
3250;BME280;1637;42.020;23.992;2022-08-04T07:51:38;93124.53;;;28.50;51.87
3250;BME280;1637;42.020;23.992;2022-08-04T07:54:06;93117.75;;;28.57;52.26
3250;BME280;1637;42.020;23.992;2022-08-04T07:56:37;93111.53;;;29.63;50.19
3250;BME280;1637;42.020;23.992;2022-08-04T07:59:04;93115.03;;;30.61;48.13
3250;BME280;1637;42.020;23.992;2022-08-04T08:01:33;93114.94;;;30.04;50.45
3250;BME280;1637;42.020;23.992;2022-08-04T08:04:01;93115.25;;;29.71;51.11
3250;BME280;1637;42.020;23.992;2022-08-04T08:06:28;93112.81;;;30.35;49.99
3250;BME280;1637;42.020;23.992;2022-08-04T08:08:57;93103.69;;;29.43;49.82
3250;BME280;1637;42.020;23.992;2022-08-04T08:11:25;93104.78;;;29.88;49.40
3250;BME280;1637;42.020;23.992;2022-08-04T08:13:52;93112.72;;;30.22;47.03
3250;BME280;1637;42.020;23.992;2022-08-04T08:16:19;93106.41;;;30.02;47.48
3250;BME280;1637;42.020;23.992;2022-08-04T08:18:48;93112.97;;;29.45;48.24
3250;BME280;1637;42.020;23.992;2022-08-04T08:21:18;93114.28;;;30.60;47.34
3250;BME280;1637;42.020;23.992;2022-08-04T08:23:46;93111.22;;;31.01;44.01
3250;BME280;1637;42.020;23.992;2022-08-04T08:26:15;93103.94;;;30.42;43.79
3250;BME280;1637;42.020;23.992;2022-08-04T08:28:42;93109.63;;;30.50;43.15
3250;BME280;1637;42.020;23.992;2022-08-04T08:31:09;93108.47;;;30.39;47.06
3250;BME280;1637;42.020;23.992;2022-08-04T08:33:36;93105.94;;;30.41;45.11
3250;BME280;1637;42.020;23.992;2022-08-04T08:36:08;93107.41;;;30.86;44.60
3250;BME280;1637;42.020;23.992;2022-08-04T08:38:39;93106.41;;;30.02;44.71
3250;BME280;1637;42.020;23.992;2022-08-04T08:41:29;93086.44;;;27.91;48.39
3250;BME280;1637;42.020;23.992;2022-08-04T08:47:21;93099.91;;;29.10;46.63
3250;BME280;1637;42.020;23.992;2022-08-04T08:50:04;93093.91;;;30.20;45.94
3250;BME280;1637;42.020;23.992;2022-08-04T08:52:48;93096.19;;;30.78;43.82
3250;BME280;1637;42.020;23.992;2022-08-04T08:55:27;93091.50;;;30.11;44.23
3250;BME280;1637;42.020;23.992;2022-08-04T09:01:14;93099.31;;;30.31;41.44
3250;BME280;1637;42.020;23.992;2022-08-04T09:06:58;93093.78;;;29.83;41.84
3250;BME280;1637;42.020;23.992;2022-08-04T09:09:39;93073.00;;;30.25;42.33
3250;BME280;1637;42.020;23.992;2022-08-04T09:12:14;93090.69;;;29.92;42.00
3250;BME280;1637;42.020;23.992;2022-08-04T09:14:49;93084.94;;;29.90;41.77
3250;BME280;1637;42.020;23.992;2022-08-04T09:17:24;93084.34;;;30.21;39.51
3250;BME280;1637;42.020;23.992;2022-08-04T09:19:57;93079.63;;;29.37;39.74
3250;BME280;1637;42.020;23.992;2022-08-04T09:22:32;93085.81;;;29.73;39.73
3250;BME280;1637;42.020;23.992;2022-08-04T09:25:07;93051.25;;;30.16;39.10
3250;BME280;1637;42.020;23.992;2022-08-04T09:27:43;93080.09;;;30.39;38.44
3250;BME280;1637;42.020;23.992;2022-08-04T09:30:16;93090.19;;;31.30;39.12
3250;BME280;1637;42.020;23.992;2022-08-04T09:32:53;93083.81;;;31.94;35.83
3250;BME280;1637;42.020;23.992;2022-08-04T09:35:32;93086.66;;;31.30;36.65
3250;BME280;1637;42.020;23.992;2022-08-04T09:38:12;93078.34;;;30.79;37.92
3250;BME280;1637;42.020;23.992;2022-08-04T09:40:47;93065.41;;;29.58;39.48
3250;BME280;1637;42.020;23.992;2022-08-04T09:43:24;93075.94;;;30.89;38.35
3250;BME280;1637;42.020;23.992;2022-08-04T09:46:01;93088.75;;;31.56;36.92
3250;BME280;1637;42.020;23.992;2022-08-04T09:48:35;93079.97;;;32.10;36.10
3250;BME280;1637;42.020;23.992;2022-08-04T09:51:13;93067.91;;;31.81;34.67
3250;BME280;1637;42.020;23.992;2022-08-04T09:53:52;93070.78;;;31.17;36.00
3250;BME280;1637;42.020;23.992;2022-08-04T09:56:25;93067.44;;;30.68;36.72
3250;BME280;1637;42.020;23.992;2022-08-04T09:59:02;93068.53;;;30.97;37.45
3250;BME280;1637;42.020;23.992;2022-08-04T10:01:35;93073.91;;;31.40;36.20
3250;BME280;1637;42.020;23.992;2022-08-04T10:04:07;93058.03;;;31.40;36.06
3250;BME280;1637;42.020;23.992;2022-08-04T10:06:55;93068.34;;;31.85;34.20
3250;BME280;1637;42.020;23.992;2022-08-04T10:09:39;93078.19;;;32.39;34.13
3250;BME280;1637;42.020;23.992;2022-08-04T10:12:20;93071.78;;;32.18;36.25
3250;BME280;1637;42.020;23.992;2022-08-04T10:14:52;93071.69;;;32.23;35.71
3250;BME280;1637;42.020;23.992;2022-08-04T10:17:38;93069.50;;;32.56;31.89
3250;BME280;1637;42.020;23.992;2022-08-04T10:20:10;93065.91;;;31.95;32.96
3250;BME280;1637;42.020;23.992;2022-08-04T10:22:44;93062.66;;;31.64;33.55
3250;BME280;1637;42.020;23.992;2022-08-04T10:25:24;93058.78;;;31.09;33.61
3250;BME280;1637;42.020;23.992;2022-08-04T10:27:57;93063.03;;;31.29;33.25
3250;BME280;1637;42.020;23.992;2022-08-04T10:30:25;93070.28;;;31.32;33.16
3250;BME280;1637;42.020;23.992;2022-08-04T10:33:05;93063.88;;;31.82;33.86
3250;BME280;1637;42.020;23.992;2022-08-04T10:35:36;93067.97;;;31.49;32.72
3250;BME280;1637;42.020;23.992;2022-08-04T10:38:09;93044.09;;;30.45;34.49
3250;BME280;1637;42.020;23.992;2022-08-04T10:40:41;93047.34;;;29.81;36.76
3250;BME280;1637;42.020;23.992;2022-08-04T10:43:18;93057.00;;;30.36;35.09
3250;BME280;1637;42.020;23.992;2022-08-04T10:45:51;93051.38;;;30.66;33.86
3250;BME280;1637;42.020;23.992;2022-08-04T10:48:28;93054.91;;;31.18;32.30
3250;BME280;1637;42.020;23.992;2022-08-04T10:51:03;93051.34;;;31.49;33.40
3250;BME280;1637;42.020;23.992;2022-08-04T10:53:33;93054.13;;;31.62;33.11
3250;BME280;1637;42.020;23.992;2022-08-04T10:56:09;93057.34;;;31.21;32.68
3250;BME280;1637;42.020;23.992;2022-08-04T10:58:44;93057.66;;;30.99;34.05
3250;BME280;1637;42.020;23.992;2022-08-04T11:01:17;93064.94;;;30.46;34.11
3250;BME280;1637;42.020;23.992;2022-08-04T11:03:50;93057.16;;;30.25;36.52
3250;BME280;1637;42.020;23.992;2022-08-04T11:06:23;93058.84;;;29.85;37.15
3250;BME280;1637;42.020;23.992;2022-08-04T11:08:53;93046.31;;;29.60;37.16
3250;BME280;1637;42.020;23.992;2022-08-04T11:11:25;93059.03;;;30.36;36.85
3250;BME280;1637;42.020;23.992;2022-08-04T11:13:59;93060.63;;;30.31;38.23
3250;BME280;1637;42.020;23.992;2022-08-04T11:16:33;93052.09;;;30.86;36.44
3250;BME280;1637;42.020;23.992;2022-08-04T11:19:14;93047.34;;;31.18;35.03
3250;BME280;1637;42.020;23.992;2022-08-04T11:21:48;93048.69;;;30.61;36.27
3250;BME280;1637;42.020;23.992;2022-08-04T11:24:24;93050.91;;;30.62;36.11
3250;BME280;1637;42.020;23.992;2022-08-04T11:26:58;93043.78;;;29.86;37.47
3250;BME280;1637;42.020;23.992;2022-08-04T11:29:32;93043.84;;;30.05;38.42
3250;BME280;1637;42.020;23.992;2022-08-04T11:32:02;93043.56;;;30.27;38.62
3250;BME280;1637;42.020;23.992;2022-08-04T11:34:34;93040.13;;;30.40;38.02
3250;BME280;1637;42.020;23.992;2022-08-04T11:37:10;93039.75;;;30.87;36.80
3250;BME280;1637;42.020;23.992;2022-08-04T11:39:42;93028.50;;;30.47;36.00
3250;BME280;1637;42.020;23.992;2022-08-04T11:42:21;93028.84;;;30.94;37.01
3250;BME280;1637;42.020;23.992;2022-08-04T11:44:54;93036.94;;;31.24;36.67
3250;BME280;1637;42.020;23.992;2022-08-04T11:47:28;93027.31;;;31.57;35.35
3250;BME280;1637;42.020;23.992;2022-08-04T11:50:04;93025.31;;;30.94;34.02
3250;BME280;1637;42.020;23.992;2022-08-04T11:52:32;93021.97;;;30.82;34.89
3250;BME280;1637;42.020;23.992;2022-08-04T11:55:02;93021.00;;;30.80;35.05
3250;BME280;1637;42.020;23.992;2022-08-04T11:57:30;93027.53;;;31.14;35.78
3250;BME280;1637;42.020;23.992;2022-08-04T11:59:58;93011.41;;;31.44;34.16
3250;BME280;1637;42.020;23.992;2022-08-04T12:02:46;93027.88;;;31.24;34.03
3250;BME280;1637;42.020;23.992;2022-08-04T12:05:20;93015.00;;;31.26;33.68
3250;BME280;1637;42.020;23.992;2022-08-04T12:07:54;93003.94;;;31.26;33.65
3250;BME280;1637;42.020;23.992;2022-08-04T12:10:35;93003.94;;;31.39;34.65
3250;BME280;1637;42.020;23.992;2022-08-04T12:13:12;93002.63;;;31.14;34.61
3250;BME280;1637;42.020;23.992;2022-08-04T12:15:51;92998.00;;;30.53;37.11
3250;BME280;1637;42.020;23.992;2022-08-04T12:18:24;93009.31;;;29.93;38.58
3250;BME280;1637;42.020;23.992;2022-08-04T12:20:58;93004.06;;;29.70;39.52
3250;BME280;1637;42.020;23.992;2022-08-04T12:23:30;93008.38;;;29.66;39.99
3250;BME280;1637;42.020;23.992;2022-08-04T12:26:02;93014.47;;;29.04;40.69
3250;BME280;1637;42.020;23.992;2022-08-04T12:28:34;93010.84;;;28.80;40.70
3250;BME280;1637;42.020;23.992;2022-08-04T12:31:06;93006.53;;;29.20;40.41
3250;BME280;1637;42.020;23.992;2022-08-04T12:33:38;93001.22;;;29.27;40.30
3250;BME280;1637;42.020;23.992;2022-08-04T12:36:17;93005.78;;;28.89;40.76
3250;BME280;1637;42.020;23.992;2022-08-04T12:38:49;93006.22;;;28.63;41.26
3250;BME280;1637;42.020;23.992;2022-08-04T12:41:22;93008.28;;;28.52;41.81
3250;BME280;1637;42.020;23.992;2022-08-04T12:43:50;93007.88;;;28.78;42.25
3250;BME280;1637;42.020;23.992;2022-08-04T12:46:20;93005.91;;;29.08;41.64
3250;BME280;1637;42.020;23.992;2022-08-04T12:48:48;92960.19;;;29.13;39.96
3250;BME280;1637;42.020;23.992;2022-08-04T12:51:17;93012.63;;;29.43;40.21
3250;BME280;1637;42.020;23.992;2022-08-04T12:53:46;93017.03;;;29.75;40.41
3250;BME280;1637;42.020;23.992;2022-08-04T12:56:14;93018.94;;;29.08;40.08
3250;BME280;1637;42.020;23.992;2022-08-04T12:58:44;93014.59;;;28.88;39.93
3250;BME280;1637;42.020;23.992;2022-08-04T13:01:16;93011.41;;;28.37;40.81
3250;BME280;1637;42.020;23.992;2022-08-04T13:03:47;93019.03;;;28.55;40.20
3250;BME280;1637;42.020;23.992;2022-08-04T13:06:23;93010.56;;;28.48;40.21
3250;BME280;1637;42.020;23.992;2022-08-04T13:08:50;93019.56;;;28.54;40.46
3250;BME280;1637;42.020;23.992;2022-08-04T13:11:20;93020.88;;;28.47;41.13
3250;BME280;1637;42.020;23.992;2022-08-04T13:13:51;93018.13;;;28.42;40.15
3250;BME280;1637;42.020;23.992;2022-08-04T13:16:27;93021.13;;;28.44;40.08
3250;BME280;1637;42.020;23.992;2022-08-04T13:18:55;93014.44;;;28.28;39.91
3250;BME280;1637;42.020;23.992;2022-08-04T13:21:26;93014.03;;;28.54;40.46
3250;BME280;1637;42.020;23.992;2022-08-04T13:23:56;93013.78;;;28.57;39.40
3250;BME280;1637;42.020;23.992;2022-08-04T13:26:25;93010.38;;;28.76;40.27
3250;BME280;1637;42.020;23.992;2022-08-04T13:28:53;93021.44;;;28.70;39.19
3250;BME280;1637;42.020;23.992;2022-08-04T13:31:26;93018.66;;;28.76;39.07
3250;BME280;1637;42.020;23.992;2022-08-04T13:34:02;93015.66;;;28.73;38.52
3250;BME280;1637;42.020;23.992;2022-08-04T13:36:33;92988.03;;;29.15;36.95
3250;BME280;1637;42.020;23.992;2022-08-04T13:39:04;93016.91;;;30.11;36.91
3250;BME280;1637;42.020;23.992;2022-08-04T13:41:33;93010.31;;;29.71;36.76
3250;BME280;1637;42.020;23.992;2022-08-04T13:44:01;93011.59;;;29.70;36.62
3250;BME280;1637;42.020;23.992;2022-08-04T13:46:37;93001.44;;;29.78;36.09
3250;BME280;1637;42.020;23.992;2022-08-04T13:49:08;93001.03;;;28.90;37.28
3250;BME280;1637;42.020;23.992;2022-08-04T13:51:37;93001.13;;;29.33;37.81
3250;BME280;1637;42.020;23.992;2022-08-04T13:54:05;93006.31;;;29.18;37.98
3250;BME280;1637;42.020;23.992;2022-08-04T13:56:35;92984.66;;;28.97;38.95
3250;BME280;1637;42.020;23.992;2022-08-04T13:59:07;92985.69;;;28.59;40.72
3250;BME280;1637;42.020;23.992;2022-08-04T14:01:37;92973.19;;;28.58;40.23
3250;BME280;1637;42.020;23.992;2022-08-04T14:04:12;92986.56;;;28.78;40.77
3250;BME280;1637;42.020;23.992;2022-08-04T14:06:49;92983.53;;;28.87;39.92
3250;BME280;1637;42.020;23.992;2022-08-04T14:09:19;92985.03;;;29.67;38.90
3250;BME280;1637;42.020;23.992;2022-08-04T14:11:48;92959.34;;;28.99;39.34
3250;BME280;1637;42.020;23.992;2022-08-04T14:14:17;92983.22;;;28.91;38.40
3250;BME280;1637;42.020;23.992;2022-08-04T14:16:58;92962.63;;;29.22;38.85
3250;BME280;1637;42.020;23.992;2022-08-04T14:19:26;92982.84;;;29.05;38.86
3250;BME280;1637;42.020;23.992;2022-08-04T14:21:55;92969.53;;;29.10;38.90
3250;BME280;1637;42.020;23.992;2022-08-04T14:24:22;92968.44;;;29.18;39.64
3250;BME280;1637;42.020;23.992;2022-08-04T14:26:50;92975.72;;;29.16;39.89
3250;BME280;1637;42.020;23.992;2022-08-04T14:29:17;92983.38;;;29.04;39.16